createdAt,value
2022-10-12T00:00:06.540Z,9.80
2022-10-12T00:02:40.996Z,9.50
2022-10-12T00:05:08.780Z,9.90
2022-10-12T00:07:36.480Z,9.82
2022-10-12T00:10:04.568Z,10.02
2022-10-12T00:12:32.237Z,10.27
2022-10-12T00:14:59.560Z,9.68
2022-10-12T00:17:26.949Z,9.32
2022-10-12T00:19:54.579Z,10.10
2022-10-12T00:22:21.906Z,10.43
2022-10-12T00:24:49.249Z,10.20
2022-10-12T00:27:16.847Z,10.63
2022-10-12T00:29:44.177Z,10.70
2022-10-12T00:32:11.494Z,10.68
2022-10-12T00:34:39.105Z,9.45
2022-10-12T00:37:06.471Z,9.23
2022-10-12T00:39:33.790Z,9.85
2022-10-12T00:42:01.383Z,9.13
2022-10-12T00:44:43.815Z,10.07
2022-10-12T00:47:31.098Z,9.65
2022-10-12T00:50:01.160Z,9.00
2022-10-12T00:52:34.749Z,9.32
2022-10-12T00:55:02.960Z,8.52
2022-10-12T00:57:30.599Z,9.43
2022-10-12T01:00:05.409Z,9.43
2022-10-12T01:02:34.735Z,9.88
2022-10-12T01:05:03.120Z,9.60
2022-10-12T01:07:30.794Z,8.73
2022-10-12T01:09:58.400Z,9.38
2022-10-12T01:12:26.938Z,10.02
2022-10-12T01:14:54.467Z,10.27
2022-10-12T01:17:26.247Z,9.60
2022-10-12T01:20:35.175Z,9.07
2022-10-12T01:23:18.288Z,9.73
2022-10-12T01:26:17.050Z,11.18
2022-10-12T01:29:12.516Z,10.20
2022-10-12T01:31:44.859Z,9.43
2022-10-12T01:34:17.595Z,10.73
2022-10-12T01:36:48.890Z,10.15
2022-10-12T01:39:31.310Z,9.63
2022-10-12T01:42:01.321Z,9.80
2022-10-12T01:44:30.194Z,10.30
2022-10-12T01:46:57.513Z,9.93
2022-10-12T01:49:28.401Z,11.10
2022-10-12T01:52:30.585Z,9.75
2022-10-12T01:55:13.223Z,9.52
2022-10-12T01:57:57.485Z,10.38
2022-10-12T02:00:24.832Z,10.55
2022-10-12T02:03:13.513Z,10.05
2022-10-12T02:06:01.174Z,9.88
2022-10-12T02:08:41.060Z,9.55
2022-10-12T02:11:16.873Z,9.45
2022-10-12T02:13:47.287Z,9.18
2022-10-12T02:16:18.313Z,10.20
2022-10-12T02:18:48.262Z,9.93
2022-10-12T02:21:21.648Z,10.43
2022-10-12T02:23:51.035Z,10.88
2022-10-12T02:26:19.390Z,10.57
2022-10-12T02:28:47.813Z,9.82
2022-10-12T02:31:17.370Z,10.65
2022-10-12T02:33:56.740Z,11.23
2022-10-12T02:36:30.673Z,10.35
2022-10-12T02:39:08.221Z,11.18
2022-10-12T02:41:41.004Z,10.82
2022-10-12T02:44:11.150Z,10.75
2022-10-12T02:46:40.307Z,10.25
2022-10-12T02:49:09.271Z,10.45
2022-10-12T02:51:37.798Z,10.10
2022-10-12T02:54:05.171Z,9.90
2022-10-12T02:56:32.510Z,10.45
2022-10-12T02:59:00.105Z,10.20
2022-10-12T03:01:27.571Z,10.60
2022-10-12T03:03:54.940Z,11.02
2022-10-12T03:06:23.012Z,10.77
2022-10-12T03:08:51.734Z,10.43
2022-10-12T03:11:19.062Z,11.32
2022-10-12T03:13:46.690Z,10.52
2022-10-12T03:16:14.089Z,9.68
2022-10-12T03:18:41.546Z,10.23
2022-10-12T03:21:10.901Z,10.35
2022-10-12T03:23:38.482Z,10.77
2022-10-12T03:26:06.130Z,10.55
2022-10-12T03:28:33.991Z,11.50
2022-10-12T03:31:02.145Z,11.23
2022-10-12T03:33:29.486Z,11.12
2022-10-12T03:35:57.197Z,11.18
2022-10-12T03:38:24.604Z,10.30
2022-10-12T03:40:51.934Z,10.32
2022-10-12T03:43:19.694Z,11.23
2022-10-12T03:45:47.033Z,11.35
2022-10-12T03:48:14.450Z,11.02
2022-10-12T03:50:42.059Z,10.63
2022-10-12T03:53:10.423Z,11.77
2022-10-12T03:55:37.794Z,10.80
2022-10-12T03:58:05.400Z,10.90
2022-10-12T04:00:32.728Z,10.73
2022-10-12T04:03:02.144Z,10.55
2022-10-12T04:05:30.163Z,10.43
2022-10-12T04:07:57.675Z,11.05
2022-10-12T04:10:25.532Z,12.00
2022-10-12T04:12:52.975Z,11.77
2022-10-12T04:15:20.304Z,12.10
2022-10-12T04:17:47.897Z,11.73
2022-10-12T04:20:15.265Z,11.25
2022-10-12T04:22:42.611Z,11.48
2022-10-12T04:25:11.256Z,11.90
2022-10-12T04:27:38.836Z,11.80
2022-10-12T04:30:06.976Z,11.82
2022-10-12T04:32:34.570Z,12.30
2022-10-12T04:35:01.938Z,11.63
2022-10-12T04:37:29.588Z,11.32
2022-10-12T04:39:59.704Z,11.88
2022-10-12T04:42:30.139Z,11.63
2022-10-12T04:44:57.733Z,12.13
2022-10-12T04:47:25.219Z,13.35
2022-10-12T04:49:52.574Z,12.65
2022-10-12T04:52:20.445Z,12.68
2022-10-12T04:54:47.789Z,12.40
2022-10-12T04:57:15.115Z,12.85
2022-10-12T04:59:42.728Z,13.60
2022-10-12T05:02:10.055Z,12.90
2022-10-12T05:04:37.375Z,12.55
2022-10-12T05:07:04.950Z,13.30
2022-10-12T05:09:32.314Z,12.65
2022-10-12T05:11:59.626Z,13.23
2022-10-12T05:14:29.182Z,14.13
2022-10-12T05:16:58.422Z,13.43
2022-10-12T05:19:25.776Z,13.55
2022-10-12T05:21:54.681Z,13.35
2022-10-12T05:24:22.075Z,11.95
2022-10-12T05:26:49.434Z,13.20
2022-10-12T05:29:17.025Z,13.23
2022-10-12T05:31:44.356Z,13.10
2022-10-12T05:34:11.702Z,13.50
2022-10-12T05:36:39.287Z,13.32
2022-10-12T05:39:06.654Z,12.98
2022-10-12T05:41:33.964Z,13.82
2022-10-12T05:44:01.559Z,13.90
2022-10-12T05:46:28.917Z,14.27
2022-10-12T05:48:56.254Z,13.93
2022-10-12T05:51:28.544Z,15.40
2022-10-12T05:53:56.556Z,64.35
2022-10-12T05:56:24.144Z,19.08
2022-10-12T05:58:51.498Z,25.02
2022-10-12T06:01:18.844Z,15.20
2022-10-12T06:03:46.431Z,15.57
2022-10-12T06:06:13.821Z,15.70
2022-10-12T06:08:41.182Z,14.27
2022-10-12T06:11:08.822Z,13.70
2022-10-12T06:13:36.171Z,15.07
2022-10-12T06:16:03.598Z,14.30
2022-10-12T06:18:31.413Z,13.77
2022-10-12T06:23:46.491Z,11.93
2022-10-12T06:26:14.847Z,10.98
2022-10-12T06:28:43.543Z,11.02
2022-10-12T06:31:11.239Z,10.00
2022-10-12T06:33:38.598Z,9.93
2022-10-12T06:36:06.229Z,9.93
2022-10-12T06:38:33.847Z,10.52
2022-10-12T06:41:01.160Z,11.10
2022-10-12T06:43:28.486Z,9.80
2022-10-12T06:46:00.532Z,10.85
2022-10-12T06:48:27.921Z,10.23
2022-10-12T06:50:55.760Z,9.80
2022-10-12T06:53:23.120Z,10.00
2022-10-12T06:55:50.469Z,8.38
2022-10-12T06:58:18.063Z,8.43
2022-10-12T07:00:45.504Z,8.55
2022-10-12T07:03:13.765Z,8.48
2022-10-12T07:05:41.358Z,8.48
2022-10-12T07:08:08.690Z,9.07
2022-10-12T07:10:36.023Z,8.43
2022-10-12T07:13:03.759Z,8.77
2022-10-12T07:15:31.087Z,8.15
2022-10-12T07:17:58.481Z,8.20
2022-10-12T07:20:26.270Z,8.88
2022-10-12T07:22:53.657Z,8.30
2022-10-12T07:25:22.344Z,8.10
2022-10-12T07:27:50.200Z,9.48
2022-10-12T07:30:17.573Z,7.82
2022-10-12T07:32:46.403Z,9.70
2022-10-12T07:35:14.083Z,9.20
2022-10-12T07:37:41.716Z,8.57
2022-10-12T07:40:09.634Z,9.20
2022-10-12T07:42:48.912Z,8.55
2022-10-12T07:45:25.041Z,8.38
2022-10-12T07:47:52.651Z,8.65
2022-10-12T07:50:19.982Z,8.20
2022-10-12T07:52:47.295Z,7.70
2022-10-12T07:55:15.176Z,8.13
2022-10-12T07:57:44.342Z,8.38
2022-10-12T08:00:12.000Z,7.87
2022-10-12T08:02:39.225Z,8.15
2022-10-12T08:05:07.346Z,7.85
2022-10-12T08:07:34.727Z,7.65
2022-10-12T08:10:02.084Z,8.30
2022-10-12T08:12:29.687Z,7.85
2022-10-12T08:14:57.025Z,8.50
2022-10-12T08:17:24.498Z,8.55
2022-10-12T08:19:52.160Z,8.68
2022-10-12T08:22:19.509Z,9.13
2022-10-12T08:24:46.906Z,8.93
2022-10-12T08:27:14.497Z,8.68
2022-10-12T08:29:41.896Z,8.80
2022-10-12T08:32:09.271Z,8.40
2022-10-12T08:34:36.895Z,8.32
2022-10-12T08:37:04.338Z,8.73
2022-10-12T08:39:31.690Z,8.57
2022-10-12T08:42:24.163Z,7.90
2022-10-12T08:45:22.449Z,8.57
2022-10-12T08:47:52.866Z,8.57
2022-10-12T08:50:52.364Z,8.15
2022-10-12T08:53:27.048Z,8.60
2022-10-12T08:55:56.472Z,7.65
2022-10-12T08:58:27.936Z,7.97
2022-10-12T09:01:05.525Z,7.60
2022-10-12T09:03:39.240Z,8.38
2022-10-12T09:06:40.271Z,8.88
2022-10-12T09:09:13.614Z,7.82
2022-10-12T09:11:53.868Z,7.70
2022-10-12T09:14:25.226Z,8.45
2022-10-12T09:16:55.825Z,8.07
2022-10-12T09:19:34.846Z,7.47
2022-10-12T09:22:03.132Z,7.65
2022-10-12T09:24:35.419Z,8.45
2022-10-12T09:27:14.228Z,8.25
2022-10-12T09:29:48.628Z,8.18
2022-10-12T09:32:31.547Z,8.00
2022-10-12T09:34:59.855Z,7.37
2022-10-12T09:37:32.111Z,8.65
2022-10-12T09:39:59.905Z,8.57
2022-10-12T09:42:27.388Z,7.95
2022-10-12T09:45:02.167Z,7.40
2022-10-12T09:47:31.698Z,7.65
2022-10-12T09:50:02.160Z,8.18
2022-10-12T09:52:39.740Z,8.00
2022-10-12T09:55:14.596Z,7.93
2022-10-12T09:57:44.824Z,6.90
2022-10-12T10:00:38.438Z,6.95
2022-10-12T10:03:06.049Z,7.22
2022-10-12T10:05:35.520Z,7.50
2022-10-12T10:08:14.797Z,6.93
2022-10-12T10:11:16.167Z,6.30
2022-10-12T10:13:47.470Z,6.95
2022-10-12T10:16:16.621Z,6.10
2022-10-12T10:18:48.639Z,6.07
2022-10-12T10:21:25.958Z,6.72
2022-10-12T10:24:04.956Z,6.62
2022-10-12T10:26:59.912Z,6.20
2022-10-12T10:29:41.520Z,6.37
2022-10-12T10:32:28.879Z,5.72
2022-10-12T10:35:04.040Z,5.82
2022-10-12T10:37:32.161Z,5.35
2022-10-12T10:39:59.809Z,5.97
2022-10-12T10:42:31.587Z,5.62
2022-10-12T10:45:02.368Z,6.00
2022-10-12T10:47:32.409Z,6.05
2022-10-12T10:50:01.654Z,5.85
2022-10-12T10:52:34.891Z,6.30
2022-10-12T10:55:19.106Z,6.30
2022-10-12T10:58:06.500Z,5.85
2022-10-12T11:00:41.166Z,5.82
2022-10-12T11:06:15.318Z,5.87
2022-10-12T11:08:43.643Z,6.20
2022-10-12T11:11:20.616Z,5.78
2022-10-12T11:14:11.821Z,5.90
2022-10-12T11:16:49.627Z,5.25
2022-10-12T11:19:34.224Z,5.45
2022-10-12T11:24:43.837Z,5.25
2022-10-12T11:27:13.642Z,5.07
2022-10-12T11:29:41.639Z,5.00
2022-10-12T11:32:22.920Z,5.00
2022-10-12T11:34:56.312Z,5.10
2022-10-12T11:37:33.657Z,4.90
2022-10-12T11:40:03.818Z,5.12
2022-10-12T11:42:43.216Z,4.85
2022-10-12T11:45:34.420Z,4.43
2022-10-12T11:48:07.067Z,5.05
2022-10-12T11:50:39.834Z,5.07
2022-10-12T11:53:12.752Z,5.07
2022-10-12T11:55:52.305Z,4.90
2022-10-12T11:58:36.288Z,4.97
2022-10-12T12:01:24.007Z,4.68
2022-10-12T12:04:29.095Z,4.68
2022-10-12T12:06:59.173Z,5.15
2022-10-12T12:09:45.315Z,4.85
2022-10-12T12:12:18.922Z,5.45
2022-10-12T12:14:55.374Z,4.97
2022-10-12T12:17:22.678Z,4.97
2022-10-12T12:19:54.798Z,5.20
2022-10-12T12:22:48.305Z,5.87
2022-10-12T12:25:20.427Z,5.47
2022-10-12T12:27:59.085Z,5.30
2022-10-12T12:30:33.042Z,5.18
2022-10-12T12:33:20.660Z,5.33
2022-10-12T12:35:58.854Z,4.93
2022-10-12T12:38:31.281Z,4.78
2022-10-12T12:41:04.705Z,5.10
2022-10-12T12:43:31.914Z,5.97
2022-10-12T12:46:00.342Z,5.90
2022-10-12T12:48:39.717Z,5.32
2022-10-12T12:51:19.186Z,4.90
2022-10-12T12:53:57.858Z,4.97
2022-10-12T12:56:41.251Z,4.93
2022-10-12T12:59:21.976Z,4.80
2022-10-12T13:02:15.171Z,6.30
2022-10-12T13:05:01.427Z,5.80
2022-10-12T13:07:52.631Z,5.32
2022-10-12T13:10:43.077Z,5.10
2022-10-12T13:13:16.765Z,4.95
2022-10-12T13:15:44.001Z,5.62
2022-10-12T13:18:34.502Z,5.40
2022-10-12T13:21:06.646Z,4.62
2022-10-12T13:23:34.632Z,4.80
2022-10-12T13:26:07.581Z,4.95
2022-10-12T13:28:38.192Z,5.15
2022-10-12T13:31:14.571Z,4.85
2022-10-12T13:33:58.491Z,4.62
2022-10-12T13:36:26.697Z,4.97
2022-10-12T13:39:08.772Z,5.00
2022-10-12T13:41:36.180Z,5.18
2022-10-12T13:44:07.685Z,5.10
2022-10-12T13:46:41.872Z,5.90
2022-10-12T13:51:39.860Z,5.47
2022-10-12T13:54:42.400Z,5.05
2022-10-12T13:57:38.051Z,5.00
2022-10-12T14:00:19.060Z,4.72
2022-10-12T14:03:02.209Z,4.87
2022-10-12T14:05:33.911Z,4.45
2022-10-12T14:08:07.170Z,4.95
2022-10-12T14:10:36.599Z,4.82
2022-10-12T14:13:05.094Z,4.72
2022-10-12T14:15:35.650Z,5.22
2022-10-12T14:18:03.395Z,4.72
2022-10-12T14:20:33.191Z,4.57
2022-10-12T14:23:02.210Z,4.65
2022-10-12T14:25:30.936Z,4.90
2022-10-12T14:28:00.821Z,4.53
2022-10-12T14:30:36.766Z,4.37
2022-10-12T14:33:13.180Z,9.93
2022-10-12T14:35:43.778Z,5.97
2022-10-12T14:38:37.230Z,8.88
2022-10-12T14:41:29.386Z,5.28
2022-10-12T14:44:09.661Z,5.68
2022-10-12T14:46:43.090Z,5.37
2022-10-12T14:49:17.216Z,5.35
2022-10-12T14:51:44.607Z,5.00
2022-10-12T14:54:12.560Z,4.50
2022-10-12T14:56:40.035Z,4.85
2022-10-12T14:59:07.409Z,4.72
2022-10-12T15:01:39.384Z,4.57
2022-10-12T15:04:12.623Z,4.50
2022-10-12T15:06:41.107Z,4.40
2022-10-12T15:09:08.949Z,4.50
2022-10-12T15:11:36.300Z,4.40
2022-10-12T15:14:03.901Z,4.10
2022-10-12T15:16:33.254Z,4.78
2022-10-12T15:19:00.598Z,4.47
2022-10-12T15:21:28.198Z,4.12
2022-10-12T15:23:57.076Z,4.68
2022-10-12T15:26:24.502Z,4.62
2022-10-12T15:28:52.722Z,4.80
2022-10-12T15:31:20.171Z,4.97
2022-10-12T15:33:47.678Z,4.55
2022-10-12T15:36:15.263Z,4.80
2022-10-12T15:38:42.643Z,4.60
2022-10-12T15:41:18.108Z,5.07
2022-10-12T15:43:45.702Z,5.62
2022-10-12T15:46:13.047Z,4.60
2022-10-12T15:48:40.531Z,5.60
2022-10-12T15:51:16.209Z,5.03
2022-10-12T15:53:44.971Z,5.03
2022-10-12T15:56:14.363Z,6.65
2022-10-12T15:58:41.716Z,7.75
2022-10-12T16:01:17.559Z,7.70
2022-10-12T16:03:45.969Z,7.55
2022-10-12T16:06:13.697Z,8.75
2022-10-12T16:08:41.111Z,9.35
2022-10-12T16:11:12.578Z,10.65
2022-10-12T16:13:46.861Z,10.35
2022-10-12T16:16:17.879Z,9.43
2022-10-12T16:18:45.330Z,8.57
2022-10-12T16:21:13.133Z,7.70
2022-10-12T16:23:41.121Z,7.80
2022-10-12T16:26:11.661Z,7.85
2022-10-12T16:28:39.494Z,7.80
2022-10-12T16:31:16.142Z,7.20
2022-10-12T16:33:44.729Z,7.53
2022-10-12T16:36:15.226Z,8.52
2022-10-12T16:38:43.243Z,8.27
2022-10-12T16:41:12.838Z,10.05
2022-10-12T16:43:40.543Z,9.70
2022-10-12T16:46:08.614Z,9.00
2022-10-12T16:48:36.951Z,8.30
2022-10-12T16:51:08.881Z,8.10
2022-10-12T16:53:36.329Z,7.82
2022-10-12T16:56:04.304Z,8.40
2022-10-12T16:58:32.028Z,9.18
2022-10-12T17:01:13.362Z,11.77
2022-10-12T17:03:41.562Z,10.77
2022-10-12T17:06:09.382Z,12.05
2022-10-12T17:08:39.118Z,11.98
2022-10-12T17:11:08.949Z,13.48
2022-10-12T17:13:38.520Z,12.18
2022-10-12T17:16:25.674Z,12.20
2022-10-12T17:18:58.961Z,10.02
2022-10-12T17:21:27.412Z,10.25
2022-10-12T17:23:59.234Z,8.95
2022-10-12T17:26:26.633Z,10.02
2022-10-12T17:28:54.034Z,10.68
2022-10-12T17:31:22.075Z,10.50
2022-10-12T17:33:49.501Z,10.45
2022-10-12T17:36:17.527Z,9.55
2022-10-12T17:38:48.868Z,10.48
2022-10-12T17:41:16.365Z,10.25
2022-10-12T17:43:44.110Z,12.05
2022-10-12T17:46:12.208Z,11.32
2022-10-12T17:48:39.647Z,12.05
2022-10-12T17:51:09.886Z,11.77
2022-10-12T17:53:38.159Z,11.85
2022-10-12T17:56:06.576Z,12.65
2022-10-12T17:58:34.828Z,11.45
2022-10-12T18:01:11.164Z,12.02
2022-10-12T18:03:41.300Z,11.23
2022-10-12T18:06:12.268Z,11.07
2022-10-12T18:08:40.218Z,12.52
2022-10-12T18:11:07.950Z,11.68
2022-10-12T18:13:36.565Z,11.00
2022-10-12T18:16:10.496Z,11.90
2022-10-12T18:18:38.704Z,11.60
2022-10-12T18:21:07.263Z,13.23
2022-10-12T18:23:35.069Z,11.23
2022-10-12T18:26:07.778Z,11.68
2022-10-12T18:28:36.339Z,11.12
2022-10-12T18:31:04.399Z,10.23
2022-10-12T18:33:33.011Z,10.70
2022-10-12T18:36:05.950Z,10.15
2022-10-12T18:38:34.128Z,9.48
2022-10-12T18:41:06.390Z,9.73
2022-10-12T18:43:34.165Z,9.65
2022-10-12T18:46:09.147Z,9.27
2022-10-12T18:51:15.331Z,9.82
2022-10-12T18:53:43.223Z,9.40
2022-10-12T18:56:11.269Z,9.73
2022-10-12T18:58:39.115Z,9.57
2022-10-12T19:01:24.483Z,9.07
2022-10-12T19:03:54.524Z,11.25
2022-10-12T19:06:25.052Z,13.70
2022-10-12T19:08:55.022Z,14.02
2022-10-12T19:11:24.522Z,15.35
2022-10-12T19:13:57.703Z,15.73
2022-10-12T19:16:26.653Z,14.73
2022-10-12T19:18:59.449Z,14.10
2022-10-12T19:21:27.873Z,15.07
2022-10-12T19:23:55.845Z,15.35
2022-10-12T19:26:27.076Z,13.77
2022-10-12T19:28:56.166Z,13.52
2022-10-12T19:34:14.122Z,13.43
2022-10-12T19:36:42.129Z,14.15
2022-10-12T19:39:17.259Z,13.07
2022-10-12T19:41:45.928Z,12.43
2022-10-12T19:44:13.746Z,12.37
2022-10-12T19:46:42.722Z,11.77
2022-10-12T19:49:13.547Z,12.10
2022-10-12T19:51:41.277Z,12.10
2022-10-12T19:54:15.066Z,12.00
2022-10-12T19:56:43.256Z,12.50
2022-10-12T19:59:10.934Z,12.25
2022-10-12T20:01:40.141Z,12.57
2022-10-12T20:04:10.471Z,12.57
2022-10-12T20:06:38.270Z,12.73
2022-10-12T20:09:07.117Z,11.77
2022-10-12T20:11:35.696Z,12.95
2022-10-12T20:14:03.381Z,12.70
2022-10-12T20:16:34.866Z,15.50
2022-10-12T20:19:04.659Z,16.20
2022-10-12T20:21:32.107Z,16.50
2022-10-12T20:23:59.453Z,15.10
2022-10-12T20:26:27.343Z,14.25
2022-10-12T20:28:54.896Z,13.93
2022-10-12T20:31:27.505Z,15.05
2022-10-12T20:33:56.109Z,14.30
2022-10-12T20:36:29.142Z,14.85
2022-10-12T20:39:00.065Z,14.40
2022-10-12T20:41:27.863Z,13.80
2022-10-12T20:43:59.259Z,14.80
2022-10-12T20:46:27.903Z,14.27
2022-10-12T20:48:58.806Z,14.25
2022-10-12T20:51:29.512Z,14.40
2022-10-12T20:54:00.362Z,14.85
2022-10-12T20:56:29.236Z,13.90
2022-10-12T20:58:58.053Z,13.95
2022-10-12T21:01:26.253Z,13.75
2022-10-12T21:03:54.343Z,13.68
2022-10-12T21:06:23.604Z,13.48
2022-10-12T21:08:55.587Z,12.50
2022-10-12T21:11:25.053Z,12.95
2022-10-12T21:13:52.611Z,12.40
2022-10-12T21:16:20.069Z,11.85
2022-10-12T21:18:47.955Z,12.93
2022-10-12T21:21:17.552Z,12.68
2022-10-12T21:23:51.005Z,12.30
2022-10-12T21:26:21.013Z,12.10
2022-10-12T21:28:48.507Z,12.95
2022-10-12T21:31:16.361Z,12.82
2022-10-12T21:33:44.363Z,13.40
2022-10-12T21:36:15.844Z,12.63
2022-10-12T21:38:43.691Z,13.10
2022-10-12T21:41:12.433Z,12.88
2022-10-12T21:43:41.571Z,13.27
2022-10-12T21:46:12.063Z,13.10
2022-10-12T21:48:39.676Z,13.73
2022-10-12T21:51:08.987Z,13.40
2022-10-12T21:53:37.342Z,13.18
2022-10-12T21:56:06.861Z,13.57
2022-10-12T21:58:34.450Z,13.30
2022-10-12T22:01:11.613Z,13.15
2022-10-12T22:03:40.169Z,12.27
2022-10-12T22:06:11.284Z,13.65
2022-10-12T22:08:38.887Z,12.55
2022-10-12T22:11:12.042Z,14.13
2022-10-12T22:13:40.194Z,13.73
2022-10-12T22:16:11.474Z,14.55
2022-10-12T22:18:39.482Z,13.45
2022-10-12T22:21:11.061Z,13.85
2022-10-12T22:23:38.411Z,13.43
2022-10-12T22:26:09.013Z,13.65
2022-10-12T22:28:36.700Z,13.07
2022-10-12T22:31:08.347Z,13.32
2022-10-12T22:33:36.195Z,14.05
2022-10-12T22:36:05.556Z,13.35
2022-10-12T22:38:33.054Z,13.05
2022-10-12T22:41:05.925Z,13.32
2022-10-12T22:43:34.738Z,13.07
2022-10-12T22:46:02.889Z,13.18
2022-10-12T22:48:30.528Z,13.32
2022-10-12T22:50:58.129Z,13.13
2022-10-12T22:53:26.502Z,13.52
2022-10-12T22:56:02.460Z,13.62
2022-10-12T22:58:30.189Z,12.80
2022-10-12T23:01:11.962Z,13.80
2022-10-12T23:03:40.079Z,12.98
2022-10-12T23:06:11.371Z,12.93
2022-10-12T23:08:38.791Z,13.27
2022-10-12T23:11:08.947Z,13.40
2022-10-12T23:13:37.454Z,12.55
2022-10-12T23:16:10.341Z,13.50
2022-10-12T23:18:39.158Z,12.52
2022-10-12T23:21:14.792Z,13.30
2022-10-12T23:23:43.505Z,13.20
2022-10-12T23:26:14.031Z,13.18
2022-10-12T23:28:41.933Z,12.57
2022-10-12T23:31:13.324Z,13.30
2022-10-12T23:33:40.934Z,13.57
2022-10-12T23:36:11.826Z,13.27
2022-10-12T23:38:40.992Z,13.82
2022-10-12T23:41:09.193Z,12.10
2022-10-12T23:43:36.758Z,12.70
2022-10-12T23:46:05.228Z,12.82
2022-10-12T23:48:33.263Z,12.48
2022-10-12T23:51:00.859Z,12.73
2022-10-12T23:53:28.617Z,12.13
2022-10-12T23:55:56.360Z,12.30
2022-10-12T23:58:23.740Z,12.27
